x

8725110 - Naples, Fl (npsf1) Weather Station

1:30am - Thu 24th Jul 2014 All times are EDT. -4 hours from GMT.

  • Wind
    5mph, 6mph gusts
  • Sea Temp 93°f
  • Air Temp 80°f
  • Sea Pressure 1017.4mb
  • 8725110 - Naples, Fl
  • 8725110 - Naples, Fl

More Historic Weather Station data

Upgrade to MSW Pro to gain access to the past 30 days of data for over 8000 Wavebouys and Weather Stations around the globe.

Join Pro

Comparision Forecast

View Surf forecast
   
Thu 07/24 1:30am 5 6 mph 1017.4mb 93f 80f
1:24am 3 6 mph 1017.3mb 93f 80f
1:18am 5 6 mph 1017.3mb 94f 80f
1:12am 3 5 mph 1017.4mb 94f 80f
1:06am 3 6 mph 1017.5mb 94f 80f
1:00am 5 6 mph 1017.6mb 94f 80f
12:54am 5 6 mph 1017.7mb 94f 80f
12:48am 5 6 mph 1017.7mb 94f 80f
12:42am 3 6 mph 1017.7mb 94f 80f
12:36am 3 7 mph 1017.8mb 94f 80f
12:30am 5 6 mph 1017.8mb 94f 81f
12:24am 5 6 mph 1017.7mb 94f 81f
12:18am 3 6 mph 1017.7mb 94f -
12:12am 3 5 mph 1017.8mb 94f -
12:06am 3 5 mph 1017.8mb 94f -
12:00am 5 6 mph 1017.8mb 94f 81f
Wed 07/23 11:54pm 5 6 mph 1017.8mb 94f 81f
11:48pm 5 6 mph 1017.7mb 94f 81f
11:42pm 5 6 mph 1017.8mb 94f 81f
11:36pm 3 6 mph 1018mb 94f 81f
11:30pm 3 5 mph 1018mb 94f 82f
11:24pm 3 5 mph 1017.9mb 94f 82f
11:18pm 2 5 mph 1017.9mb 94f 82f
11:12pm 3 5 mph 1017.9mb 94f 82f
11:06pm 5 6 mph 1017.9mb 94f 82f
11:00pm 3 5 mph 1018mb 94f 82f
10:54pm 5
mph
1018mb 94f 82f
10:48pm 3 5 mph 1018mb 94f 82f
10:42pm 3 5 mph 1018mb 94f 82f
10:36pm 3
mph
1018mb 94f 82f
10:30pm 2 3 mph 1018mb 94f 82f
10:24pm 2 5 mph 1017.9mb 94f 83f
10:18pm 3 5 mph 1018mb 94f 83f
10:12pm 2 5 mph 1017.9mb 94f 83f
10:06pm 3 5 mph 1017.8mb 94f 83f
10:00pm 3 5 mph 1017.8mb 94f 83f
9:54pm 3 5 mph 1017.7mb 94f 83f
9:48pm 3 5 mph 1017.7mb 94f 83f
9:42pm 3 5 mph 1017.7mb 94f 83f
9:36pm 3 5 mph 1017.6mb 94f 83f
9:30pm 2 5 mph 1017.6mb 94f 83f
9:24pm 3 6 mph 1017.5mb 94f 83f
9:18pm 3 5 mph 1017.6mb 94f 83f
9:12pm 3 5 mph 1017.6mb 94f 83f
9:06pm 3 6 mph 1017.6mb 94f 83f
9:00pm 5 7 mph 1017.5mb 94f 83f
8:54pm 5 6 mph 1017.6mb 94f 84f
8:48pm 3 5 mph 1017.6mb 94f 84f
8:42pm 3 6 mph 1017.7mb 94f 84f
8:36pm 3 6 mph 1017.6mb 94f 84f
8:30pm 5
mph
1017.7mb 94f 84f
8:24pm 5 6 mph 1017.7mb 94f 85f
8:18pm 2 3 mph 1017.8mb 94f 85f
8:12pm 1 3 mph 1017.9mb 94f 85f
8:06pm  -  2 mph 1017.7mb 94f 85f
8:00pm 1 3 mph 1017.6mb 94f 85f
7:54pm 2 3 mph 1017.5mb 94f 85f
7:48pm  -  2 mph 1017.6mb 94f 86f
7:42pm  -  2 mph 1017.6mb 94f 86f
7:36pm 1 3 mph 1017.4mb 95f 86f
7:30pm 3 5 mph 1017.3mb 95f 85f
7:24pm 1 3 mph 1017.2mb 95f 86f
7:18pm 1 3 mph 1017.1mb 95f 86f
7:12pm  -  2 mph 1017.1mb 95f 86f
7:06pm 2 5 mph 1017.1mb 94f 85f
7:00pm 1 3 mph 1017.2mb 94f 86f
6:54pm 1 3 mph 1017.1mb 94f 86f
6:48pm 1 2 mph 1017mb 94f 86f
6:42pm  -  2 mph 1017.1mb 94f 86f
6:36pm 1 3 mph 1017.1mb 94f 85f
6:30pm 1 2 mph 1017mb 94f 85f
6:24pm 2 3 mph 1017.2mb 94f 85f
6:18pm 2 3 mph 1017.1mb 95f 85f
6:12pm 3 5 mph 1017.1mb 95f 84f
6:06pm 3 7 mph 1017.2mb 95f 84f
6:00pm 6 8 mph 1017.1mb 95f 84f
5:54pm 2 7 mph 1017.2mb 95f 85f
5:48pm 3 9 mph 1017.4mb 95f 84f
5:42pm 5 8 mph 1017.5mb 94f 85f
5:36pm 1 3 mph 1017.5mb 94f 87f
5:30pm 1 3 mph 1017.5mb 94f 87f
5:24pm  -  3 mph 1017.6mb 94f 87f
5:18pm  -  5 mph 1017.8mb 94f 87f
5:12pm 2 6 mph 1017.6mb 94f 87f
5:06pm 3 5 mph 1017.5mb 94f 86f
5:00pm 3 6 mph 1017.6mb 94f 86f
4:54pm 6 8 mph 1017.7mb 94f 86f
4:48pm 5 8 mph 1017.7mb 94f 86f
4:42pm 5 6 mph 1017.7mb 95f 86f
4:36pm 6 7 mph 1017.8mb 95f 86f
4:30pm 5 6 mph 1017.9mb 95f 86f
4:24pm 6 7 mph 1017.8mb 94f 87f
4:18pm 5 8 mph 1017.7mb 95f 86f
4:12pm 6 8 mph 1017.6mb 95f 87f
4:06pm 5 8 mph 1017.4mb 95f 87f
4:00pm 2 5 mph 1017.5mb 95f 88f
3:54pm 5 6 mph 1017.6mb 95f 87f
3:48pm 5 7 mph 1017.9mb 95f 87f
3:42pm 6 8 mph 1018mb 95f 87f
3:36pm 5 8 mph 1017.9mb 94f 88f
3:30pm 6 7 mph 1017.9mb 94f 87f
3:24pm 5 8 mph 1018.1mb 94f 86f
3:18pm 6 8 mph 1018.1mb 94f 87f
3:12pm 3 6 mph 1018.3mb 94f 88f
3:06pm 6 7 mph 1018.4mb 94f 87f
3:00pm 6 7 mph 1018.4mb 94f 86f
2:54pm 3 6 mph 1018.7mb 94f 88f
2:48pm 3 7 mph 1018.5mb 94f 88f
2:42pm 5 7 mph 1018.7mb 94f 87f
2:36pm 5 8 mph 1018.8mb 94f 87f
2:30pm 7 8 mph 1018.8mb 94f 86f
2:24pm 7 9 mph 1018.8mb 94f 85f
2:18pm 7 8 mph 1018.8mb 93f 86f
2:12pm 6 9 mph 1018.9mb 93f 85f
2:06pm 6 8 mph 1018.9mb 92f 86f
2:00pm 7 9 mph 1019mb 92f 86f
1:54pm 6 8 mph 1018.8mb 92f 86f
1:48pm 8 10 mph 1018.7mb 92f 85f
1:42pm 7 9 mph 1018.8mb 92f 86f
1:36pm 7 10 mph 1019mb 92f 85f
1:30pm 8 9 mph 1019.1mb 92f 86f
1:24pm 8 9 mph 1019.1mb 92f 85f
1:18pm 5 8 mph 1019.2mb 92f 86f
1:12pm 6 8 mph 1019.2mb 92f 86f
1:06pm 6 8 mph 1019.2mb 92f 85f
1:00pm 6 7 mph 1019.1mb 92f 86f
12:54pm 3 5 mph 1019.2mb 92f 87f
12:48pm 2 5 mph 1019.2mb 92f 86f
12:42pm 2 5 mph 1019.1mb 92f 88f
12:36pm 2 3 mph 1019.1mb 92f 89f
12:30pm 1 5 mph 1019mb 92f 90f
12:24pm 2 5 mph 1019.1mb 92f 87f
12:18pm 2 5 mph 1019mb 92f 86f
12:12pm 2 5 mph 1019.1mb 92f 86f
12:06pm 5
mph
1019.1mb 91f 86f
12:00pm 2 5 mph 1019.1mb 91f 88f
11:54am 5
mph
1019.1mb 92f 86f
11:48am 2 3 mph 1019.1mb 92f 88f
11:42am 2 3 mph 1019mb 91f 88f
11:36am 3 5 mph 1019.1mb 91f 87f
11:30am 3 5 mph 1019.1mb 91f 86f
11:24am 3 5 mph 1019.1mb 91f 86f
11:18am 5 6 mph 1019.2mb 91f 84f
11:12am 3 5 mph 1019.3mb 91f 85f
11:06am 3 6 mph 1019.3mb 91f 85f
11:00am 3 5 mph 1019.2mb 91f 85f
10:54am 3 5 mph 1019.2mb 91f 84f
10:48am 2 5 mph 1019.1mb 91f 86f
10:42am 3 5 mph 1019.1mb 91f 85f
10:36am 3 5 mph 1019.1mb 91f 85f
10:30am 3 5 mph 1019mb 91f 85f
10:24am 2 5 mph 1019mb 91f 85f
10:18am 3 5 mph 1019mb 91f 85f
10:12am  -  2 mph 1019.1mb 91f 88f
10:06am  -  1 mph 1019.1mb 91f 86f
10:00am 2 3 mph 1019.1mb 91f 85f
9:54am  -  5 mph 1019.3mb 91f 85f
9:48am 3 5 mph 1019.2mb 91f 84f
9:42am 3 5 mph 1019.3mb 91f 84f
9:36am 2 6 mph 1019.2mb 91f 83f
9:30am 3 5 mph 1019.2mb 91f 83f
9:24am 3 5 mph 1019.1mb 91f 83f
9:18am 3 5 mph 1019.1mb 91f 82f
9:12am 5 6 mph 1019.2mb 91f 82f
9:06am 5 6 mph 1019.2mb 91f 82f
9:00am 3 6 mph 1019.2mb 90f 82f
8:54am 5 6 mph 1019.1mb 91f 81f
8:48am 5 7 mph 1019.1mb 91f 81f
8:42am 5 7 mph 1019mb 90f 81f
8:36am 3 6 mph 1019mb 90f 81f
8:30am 3 5 mph 1018.9mb 90f 80f
8:24am 5 6 mph 1018.9mb 91f 80f
8:18am 6 7 mph 1018.8mb 91f 79f
8:12am 5 6 mph 1018.8mb 91f 79f
8:06am 6 7 mph 1018.8mb 91f 79f
8:00am 6 7 mph 1018.9mb 91f 79f
7:54am 5 7 mph 1018.6mb 91f 78f
7:48am 5 7 mph 1018.6mb 91f 78f
7:42am 5 7 mph 1018.5mb 91f 78f
7:36am 5 7 mph 1018.4mb 91f 77f
7:30am 5 7 mph 1018.3mb 91f 77f
7:24am 5 7 mph 1018.3mb 91f 76f
7:18am 5 6 mph 1018.3mb 91f 76f
7:12am 3 6 mph 1018.2mb 91f 76f
7:06am 5 6 mph 1018.1mb 91f 76f
7:00am 5 6 mph 1018.1mb 91f 76f
6:54am 5 6 mph 1018.1mb 91f 76f
6:48am 5 6 mph 1018.1mb 90f 76f
6:42am 5 6 mph 1018mb 90f 76f
6:36am 5 6 mph 1018.1mb 90f 76f
6:30am 3 6 mph 1018mb 91f 76f
6:24am 3 6 mph 1018mb 91f 76f
6:18am 5 6 mph 1018.1mb 91f 76f
6:12am 3 6 mph 1017.9mb 91f 76f
6:06am 5 6 mph 1017.9mb 91f 76f
6:00am 3 6 mph 1017.9mb 91f 76f
5:54am 3 5 mph 1017.9mb 91f 76f
5:48am 3
mph
1017.9mb 91f 76f
5:42am 2 3 mph 1017.9mb 91f 76f
5:36am 2 5 mph 1017.9mb 91f 76f
5:30am 2 5 mph 1017.9mb 91f 76f
5:24am 3 6 mph 1017.8mb 91f 76f
5:18am 3 5 mph 1017.7mb 91f 76f
5:12am 3 5 mph 1017.7mb 91f 76f
5:06am 2 3 mph 1017.6mb 91f 76f
5:00am 2 5 mph 1017.6mb 91f 76f
4:54am 3
mph
1017.5mb 91f 76f
4:48am 2 5 mph 1017.5mb 91f 76f
4:42am 2 5 mph 1017.5mb 91f 76f
4:36am 3 5 mph 1017.4mb 91f 76f
4:30am 3 5 mph 1017.4mb 91f 76f
4:24am 3 6 mph 1017.4mb 91f 76f
4:18am 3 5 mph 1017.4mb 91f 76f
4:12am 3 6 mph 1017.5mb 91f 76f
4:06am 3 5 mph 1017.5mb 91f 76f
4:00am 2 3 mph 1017.5mb 91f 76f
3:54am 3 5 mph 1017.6mb 91f 76f
3:48am 2 5 mph 1017.6mb 91f 76f
3:42am 3 5 mph 1017.7mb 90f 76f
3:36am 3
mph
1017.7mb 90f 76f
3:30am 2 3 mph 1017.7mb 90f 76f
3:24am 3
mph
1017.8mb 90f 76f
3:18am 2 3 mph 1017.9mb 90f 76f
3:12am 2 3 mph 1018mb 90f 77f
3:06am 2 3 mph 1018mb 90f 77f
3:00am 3 5 mph 1017.8mb 90f 77f
2:54am 3
mph
1017.9mb 90f 77f
2:48am 2 3 mph 1018mb 90f 77f
2:42am 3
mph
1018mb 90f 77f
2:36am 2 3 mph 1018mb 90f 77f
2:30am 2 3 mph 1018.2mb 90f 77f
2:24am 2 3 mph 1018.1mb 90f 77f
2:18am 3 5 mph 1018.1mb 90f 77f
2:12am 3 5 mph 1018.2mb 91f 77f
2:06am 3 6 mph 1018.3mb 91f 77f
2:00am 3 5 mph 1018.3mb 91f 77f
1:54am 2 3 mph 1018.4mb 91f 77f
1:48am 2 3 mph 1018.5mb 91f 77f
1:42am 2 3 mph 1018.5mb 91f 77f
1:36am 2 5 mph 1018.5mb 91f 77f
1:30am 2 3 mph 1018.5mb 91f 77f
1:24am 2 3 mph 1018.6mb 91f 77f
1:18am 2 3 mph 1018.6mb 91f 77f
1:12am 2 3 mph 1018.7mb 91f 78f
1:06am 3 5 mph 1018.8mb 91f 77f
1:00am 2 3 mph 1018.8mb 91f 78f
12:54am 2 3 mph 1019mb 91f 78f
12:48am 1 3 mph 1019.2mb 91f 78f
12:42am 2 3 mph 1019.2mb 91f 78f
12:36am 2 5 mph 1019.1mb 91f 78f
12:30am 2 3 mph 1019mb 91f 78f
12:24am 2 5 mph 1019.1mb 91f 78f
12:18am 2 5 mph 1019.1mb 91f 78f
12:12am 3 5 mph 1019.2mb 91f 78f
12:06am 2 3 mph 1019.2mb 91f 78f
12:00am 2 5 mph 1019.3mb 91f 78f
Tue 07/22 11:54pm 2 3 mph 1019.2mb 91f 78f
11:48pm 3 6 mph 1019.2mb 91f 78f
11:42pm 3 6 mph 1019.2mb 91f 78f
11:36pm 3 5 mph 1019.2mb 91f 78f
11:30pm 3 5 mph 1019.2mb 91f 78f
11:24pm 5 6 mph 1019.2mb 91f 78f
11:18pm 3 6 mph 1019.1mb 91f 78f
11:12pm 3 5 mph 1019.1mb 91f 78f
11:06pm 3 6 mph 1019.1mb 91f 78f
11:00pm 2 5 mph 1019mb 91f 78f
10:54pm 3 5 mph 1018.9mb 91f 78f
10:48pm 3 6 mph 1018.8mb 91f 78f
10:42pm 3 6 mph 1018.7mb 91f 78f
10:36pm 2 5 mph 1018.7mb 91f 78f
10:30pm 3 5 mph 1018.6mb 91f 78f
10:24pm 3 5 mph 1018.4mb 91f 78f
10:18pm 3 5 mph 1018.3mb 91f 78f
10:12pm 3 6 mph 1018.2mb 91f 78f
10:06pm 2 5 mph 1018.2mb 91f 78f
10:00pm 3 5 mph 1018.3mb 91f 78f
9:54pm 2 5 mph 1018.3mb 91f 78f
9:48pm 2 5 mph 1018.3mb 91f 78f
9:42pm 2 5 mph 1018.4mb 91f 78f
9:36pm 3 5 mph 1018.4mb 91f 78f
9:30pm 3 5 mph 1018.4mb 91f 78f
9:24pm 3 6 mph 1018.4mb 91f 78f
9:18pm 2 5 mph 1018.4mb 91f 79f
9:12pm 3 5 mph 1018.4mb 91f 79f
9:06pm 3 5 mph 1018.4mb 91f 79f
9:00pm 2 5 mph 1018.2mb 91f 79f
8:54pm 2 5 mph 1018.2mb 91f 79f
8:48pm 3 5 mph 1018.1mb 91f 79f
8:42pm 2 5 mph 1018mb 91f 79f
8:36pm 2 5 mph 1018.1mb 91f 79f
8:30pm 3 6 mph 1018.2mb 91f 79f
8:24pm 2 5 mph 1018.2mb 91f 79f
8:18pm 3 6 mph 1018.1mb 91f 79f
8:12pm 6 7 mph 1018.1mb 91f 79f
8:06pm 6 7 mph 1018mb 91f 79f
8:00pm 3 6 mph 1017.9mb 91f 80f
7:54pm 5 7 mph 1017.8mb 91f 79f
7:48pm 5 6 mph 1017.9mb 91f 80f
7:42pm 5 7 mph 1017.9mb 91f 80f
7:36pm 5 6 mph 1017.8mb 91f 80f
7:30pm 3 5 mph 1017.7mb 91f 80f
7:24pm 3 6 mph 1017.6mb 91f 80f
7:18pm 5 7 mph 1017.6mb 91f 80f
7:12pm 6 8 mph 1017.4mb 91f 80f
7:06pm 5 7 mph 1017.3mb 92f 80f
7:00pm 3 7 mph 1017.3mb 92f 80f
6:54pm 5 7 mph 1017.3mb 92f 80f
6:48pm 5 7 mph 1017.3mb 92f 80f
6:42pm 6 7 mph 1017.3mb 92f 80f
6:36pm 5 6 mph 1017.4mb 92f 80f
6:30pm 5 6 mph 1017.4mb 92f 80f
6:24pm 2 5 mph 1017.4mb 92f 80f
6:18pm 2 6 mph 1017.4mb 92f 80f
6:12pm 3 7 mph 1017.5mb 92f 80f
6:06pm 3 6 mph 1017.4mb 91f 80f
6:00pm 5 7 mph 1017.3mb 91f 80f
5:54pm 5 8 mph 1017.4mb 91f 80f
5:48pm 6 7 mph 1017.3mb 91f 80f
5:42pm 5 9 mph 1017.4mb 91f 80f
5:36pm 5 7 mph 1017.5mb 92f 80f
5:30pm 5 7 mph 1017.4mb 91f 80f
5:24pm 6 7 mph 1017.4mb 91f 80f
5:18pm 5 7 mph 1017.4mb 92f 80f
5:12pm 6 7 mph 1017.5mb 92f 79f
5:06pm 5 7 mph 1017.5mb 92f 79f
5:00pm 6 8 mph 1017.5mb 92f 79f
4:54pm 6 8 mph 1017.5mb 92f 78f
4:48pm 6 8 mph 1017.6mb 92f 78f
4:42pm 3 6 mph 1017.7mb 92f 78f
4:36pm 5 7 mph 1017.7mb 92f 78f
4:30pm 3 6 mph 1017.7mb 92f 78f
4:24pm 2 6 mph 1017.8mb 92f 78f
4:18pm 3 7 mph 1017.8mb 92f 78f
4:12pm 6 8 mph 1017.9mb 92f 78f
4:06pm 5 7 mph 1018.2mb 92f 78f
4:00pm 6 8 mph 1018.3mb 92f 79f
3:54pm 7 11 mph 1018.3mb 92f 79f
3:48pm 7 17 mph 1018.2mb 92f 79f
3:42pm 15 18 mph 1018.1mb 92f 80f
3:36pm 16 21 mph 1018.1mb 92f 78f
3:30pm 21 26 mph 1018.2mb 92f 78f
3:24pm 22 28 mph 1018.4mb 91f 77f
3:18pm 22 30 mph 1018.6mb 92f 78f
3:12pm 26 30 mph 1018.7mb 92f 77f
3:06pm 22 26 mph 1018.9mb 92f 78f
3:00pm 11 14 mph 1018.7mb 92f 80f
2:54pm 7 10 mph 1018.7mb 92f 79f
2:48pm 7 11 mph 1018.5mb 92f 78f
2:42pm 9 13 mph 1018.5mb 92f 78f
2:36pm 8 13 mph 1018.6mb 92f 78f
2:30pm 11 15 mph 1018.6mb 92f 78f
2:24pm 15 17 mph 1018.5mb 92f 78f
2:18pm 7 16 mph 1018.7mb 92f 77f
2:12pm 15 20 mph 1019.1mb 92f 77f
2:06pm 14 15 mph 1019.4mb 92f 78f
2:00pm 10 13 mph 1019.4mb 92f 77f
1:54pm 13 18 mph 1019.5mb 92f 77f
1:48pm 6 16 mph 1018.9mb 92f 79f
1:42pm 5 6 mph 1018.6mb 92f 79f
1:36pm 1 3 mph 1018.6mb 92f 79f
1:30pm 1 2 mph 1018.9mb 92f 78f
1:24pm 1 6 mph 1018.5mb 92f 78f
1:18pm 5 7 mph 1018.5mb 92f 78f
1:12pm 5 7 mph 1018.5mb 92f 78f
1:06pm 6 10 mph 1018.8mb 92f 78f
1:00pm 10 17 mph 1018.7mb 92f 78f
12:54pm 8 21 mph 1018.7mb 92f 80f
12:48pm 17 18 mph 1018.6mb 92f 82f
12:42pm 14 17 mph 1018.6mb 92f 83f
12:36pm 13 15 mph 1018.2mb 92f 82f
12:30pm 15 18 mph 1018.3mb 92f 82f
12:24pm 11 15 mph 1018.3mb 92f 84f
12:18pm 11 14 mph 1018.4mb 92f 83f
12:12pm 5 8 mph 1018.4mb 92f 84f
12:06pm 2 7 mph 1018.4mb 92f 84f
12:00pm 3 8 mph 1018.4mb 92f 84f
11:54am 2 6 mph 1018.5mb 92f 84f
11:48am 2 6 mph 1018.5mb 92f 83f
11:42am 2 5 mph 1018.4mb 92f 84f
11:36am 2 7 mph 1018.3mb 92f 82f
11:30am 6 8 mph 1018.4mb 92f 81f
11:24am 7 8 mph 1018.4mb 92f 80f
11:18am 7 10 mph 1018.4mb 92f 79f
11:12am 9 14 mph 1018.6mb 92f 79f
11:06am 10 18 mph 1018.5mb 92f 81f
11:00am 5 16 mph 1018.5mb 92f 83f
10:54am 11 14 mph 1018.5mb 92f 84f
10:48am 13 15 mph 1018.5mb 92f 84f
10:42am 14 15 mph 1018.6mb 92f 84f
10:36am 9 13 mph 1018.4mb 92f 84f
10:30am 10 15 mph 1018.3mb 92f 84f
10:24am 2 10 mph 1018.3mb 92f 85f
10:18am 7 13 mph 1018.3mb 92f 85f
10:12am 9 13 mph 1018.3mb 92f 84f
10:06am 8 14 mph 1018.3mb 92f 84f
10:00am 7 11 mph 1018.3mb 92f 84f
9:54am 9 13 mph 1018.2mb 92f 83f
9:48am 8 13 mph 1018.2mb 92f 83f
9:42am 6 8 mph 1018mb 92f 83f
9:36am 5 9 mph 1018mb 92f 83f
9:30am 5 7 mph 1018mb 92f 82f
9:24am 6 8 mph 1018mb 92f 82f
9:18am 5 6 mph 1017.9mb 92f 82f
9:12am 5 7 mph 1017.8mb 92f 81f
9:06am 5 8 mph 1017.7mb 92f 80f
9:00am 6 8 mph 1017.8mb 92f 80f
8:54am 6 7 mph 1017.8mb 92f 80f
8:48am 5 7 mph 1017.8mb 92f 80f
8:42am 3 6 mph 1017.7mb 92f 80f
8:36am 3 6 mph 1017.7mb 92f 79f
8:30am 5 6 mph 1017.7mb 92f 79f
8:24am 5 7 mph 1017.7mb 92f 79f
8:18am 6 8 mph 1017.6mb 92f 79f
8:12am 3 8 mph 1017.7mb 92f 79f
8:06am 6 8 mph 1017.7mb 92f 78f
8:00am 6 10 mph 1017.6mb 92f 78f
7:54am 6 8 mph 1017.6mb 92f 78f
7:48am 5 7 mph 1017.6mb 92f 78f
7:42am 3 6 mph 1017.4mb 92f 78f
7:36am 6 8 mph 1017.3mb 92f 77f
7:30am 5 6 mph 1017.3mb 92f 77f
7:24am 5 6 mph 1017.1mb 92f 76f
7:18am 5 6 mph 1017mb 92f 76f
7:12am 3 6 mph 1016.9mb 92f 76f
7:06am 6 7 mph 1016.9mb 92f 76f
7:00am 5 8 mph 1016.8mb 92f 76f
6:54am 5 7 mph 1016.8mb 92f 76f
6:48am 5 9 mph 1016.8mb 92f 76f
6:42am 5 7 mph 1016.9mb 92f 76f
6:36am 6
mph
1016.8mb 92f 76f
6:30am 3 5 mph 1016.8mb 92f 76f
6:24am 5 7 mph 1016.9mb 92f 76f
6:18am 5 6 mph 1016.8mb 92f 76f
6:12am 3 6 mph 1016.7mb 92f 76f
6:06am 3 5 mph 1016.8mb 92f 76f
6:00am 5 6 mph 1016.7mb 92f 76f
5:54am 5 6 mph 1016.6mb 92f 76f
5:48am 3 6 mph 1016.6mb 92f 76f
5:42am 3 6 mph 1016.5mb 92f 76f
5:36am 2 6 mph 1016.4mb 93f 76f
5:30am 5 7 mph 1016.4mb 93f 76f
5:24am 5 6 mph 1016.4mb 93f 76f
5:18am 3 5 mph 1016.4mb 92f 76f
5:12am 3 5 mph 1016.3mb 92f 76f
5:06am 5 6 mph 1016.2mb 92f 76f
5:00am 2 5 mph 1016.2mb 92f 76f
4:54am 3 5 mph 1016.2mb 92f 76f
4:48am 3 5 mph 1016.2mb 92f 76f
4:42am 2 5 mph 1016.1mb 92f 76f
4:36am 3
mph
1016.2mb 92f 76f
4:30am 2 3 mph 1016.3mb 92f 76f
4:24am 2
mph
1016.3mb 92f 76f
4:18am 1 3 mph 1016.2mb 93f 76f
4:12am 3 5 mph 1016.1mb 93f 76f
4:06am 3 6 mph 1016.2mb 93f 76f
4:00am 3 6 mph 1016.1mb 93f 76f
3:54am 2 3 mph 1016.2mb 93f 76f
3:48am 1 5 mph 1016.3mb 93f 75f
3:42am 2 5 mph 1016.3mb 93f 76f
3:36am 5 6 mph 1016.3mb 93f 75f
3:30am 5 7 mph 1016.4mb 93f 76f
3:24am 3 6 mph 1016.4mb 93f 76f
3:18am 3 6 mph 1016.4mb 93f 76f
3:12am 6 7 mph 1016.4mb 93f 76f
3:06am 6 10 mph 1016.5mb 93f 76f
3:00am 6 9 mph 1016.5mb 93f 76f
2:54am 5 8 mph 1016.5mb 93f 76f
2:48am 6 10 mph 1016.6mb 93f 76f
2:42am 6 9 mph 1016.7mb 93f 76f
2:36am 5 8 mph 1016.8mb 93f 76f
2:30am 5 9 mph 1016.9mb 93f 77f
2:24am 6 10 mph 1017mb 93f 76f
2:18am 6 8 mph 1016.9mb 93f 77f
2:12am 6 9 mph 1016.9mb 93f 77f
2:06am 6 8 mph 1017.1mb 93f 77f
2:00am 3 6 mph 1017.1mb 93f 77f
1:54am 3 6 mph 1017.1mb 93f 77f
1:48am 5 7 mph 1017.1mb 93f 77f
1:42am 5 6 mph 1017mb 93f 77f
1:36am 5 6 mph 1017mb 93f 77f
1:30am 3 6 mph 1017mb 93f 77f
1:24am 5 6 mph 1017.1mb 93f 77f
1:18am 3 5 mph 1017.1mb 93f 77f
1:12am 2 6 mph 1017.2mb 93f 77f
1:06am 5 6 mph 1017.3mb 93f 77f
1:00am 3 6 mph 1017.4mb 93f 77f
12:54am 3 6 mph 1017.4mb 93f 77f
12:48am 3 5 mph 1017.4mb 93f 78f
12:42am 3 5 mph 1017.5mb 93f 77f
12:36am 3 5 mph 1017.5mb 93f 77f
12:30am 2 3 mph 1017.5mb 93f 78f
12:24am 2 3 mph 1017.5mb 93f 78f
12:18am 2 3 mph 1017.5mb 93f 78f
12:12am 2 3 mph 1017.5mb 93f 78f
12:06am  -  2 mph 1017.4mb 94f 78f
12:00am 2 6 mph 1017.4mb 93f 78f
Mon 07/21 11:54pm 5 6 mph 1017.5mb 94f 78f
11:48pm 2 5 mph 1017.4mb 94f 78f
11:42pm 3 6 mph 1017.4mb 94f 78f
11:36pm 3 6 mph 1017.5mb 94f 78f
11:30pm 2 6 mph 1017.6mb 94f 78f
11:24pm 3 6 mph 1017.6mb 94f 78f
11:18pm 5 7 mph 1017.5mb 94f 78f
11:12pm 6 8 mph 1017.5mb 94f 78f
11:06pm 5 6 mph 1017.6mb 93f 78f
11:00pm 3 6 mph 1017.6mb 93f 78f
10:54pm 3 5 mph 1017.7mb 93f 78f
10:48pm 2 3 mph 1017.9mb 93f 78f
10:42pm 2 3 mph 1018.1mb 93f 79f
10:36pm 2 3 mph 1018.2mb 93f 79f
10:30pm  -  1 mph 1018.1mb 93f 79f
10:24pm 1 2 mph 1018.2mb 94f 79f
10:18pm 1 2 mph 1018.1mb 94f 79f
10:12pm 2 3 mph 1018.1mb 94f 78f
10:06pm 2 3 mph 1018.1mb 94f 78f
10:00pm 2 3 mph 1018.1mb 94f 78f
9:54pm 1 2 mph 1018.2mb 94f 78f
9:48pm 1 3 mph 1018.2mb 94f 78f
9:42pm 2 5 mph 1018.1mb 94f 78f
9:36pm 3 6 mph 1017.9mb 94f 78f
9:30pm 3 6 mph 1017.7mb 94f 78f
9:24pm 5 6 mph 1017.9mb 94f 78f
9:18pm 5 8 mph 1018.1mb 94f 78f
9:12pm 7 9 mph 1018.1mb 94f 77f
9:06pm 3 6 mph 1018mb 94f 78f
9:00pm 2 7 mph 1018.1mb 94f 79f
8:54pm 6 8 mph 1018.1mb 94f 79f
8:48pm 7 9 mph 1018mb 94f 79f
8:42pm 6 9 mph 1018mb 94f 80f
8:36pm 6 8 mph 1017.8mb 94f 80f
8:30pm 6 7 mph 1017.8mb 94f 80f
8:24pm 6 8 mph 1017.7mb 94f 80f
8:18pm 5 9 mph 1017.7mb 94f 80f
8:12pm 6 9 mph 1017.5mb 94f 79f
8:06pm 7 8 mph 1017.6mb 94f 79f
8:00pm 3 7 mph 1017.7mb 94f 79f
7:54pm 6 9 mph 1017.5mb 94f 79f
7:48pm 9 13 mph 1017.3mb 94f 79f
7:42pm 9 13 mph 1017.5mb 94f 79f
7:36pm 8 13 mph 1017.2mb 94f 80f
7:30pm 7 10 mph 1017.1mb 94f 80f
7:24pm 9 13 mph 1017.1mb 94f 80f
7:18pm 6 8 mph 1017mb 94f 82f
7:12pm 7 10 mph 1017mb 94f 83f
7:06pm 7 8 mph 1016.9mb 94f 83f
6:48pm 6 11 mph 1016.9mb 94f 83f
6:42pm 9 17 mph 1016.9mb 94f 83f
6:36pm 8 9 mph 1016.9mb 94f 86f
6:30pm 6 9 mph 1016.8mb 94f 86f
6:24pm 8 10 mph 1016.7mb 94f 86f
6:18pm 8 11 mph 1016.5mb 94f 86f
6:12pm 9 10 mph 1016.4mb 94f 86f
6:06pm 9 14 mph 1016.5mb 94f 86f
6:00pm 10 13 mph 1016.5mb 94f 86f
5:54pm 10 11 mph 1016.7mb 94f 86f
5:48pm 8 10 mph 1016.9mb 94f 86f
5:42pm 8 9 mph 1016.9mb 94f 86f
5:36pm 7 9 mph 1016.9mb 94f 86f
5:30pm 7 9 mph 1017mb 94f 87f
5:24pm 6 8 mph 1016.8mb 94f 87f
5:18pm 7 8 mph 1016.5mb 94f 87f
5:12pm 6 9 mph 1016.6mb 94f 86f
5:06pm 6 7 mph 1016.6mb 94f 87f
5:00pm 7 8 mph 1016.7mb 94f 86f
4:54pm 6 8 mph 1016.8mb 94f 86f
4:48pm 7 8 mph 1016.7mb 94f 86f
4:42pm 6 7 mph 1016.7mb 95f 86f
4:36pm 5 8 mph 1016.6mb 94f 86f
4:30pm 7 8 mph 1016.6mb 94f 86f
4:24pm 6 8 mph 1016.8mb 94f 86f
4:18pm 6 8 mph 1016.8mb 94f 86f
4:12pm 5 6 mph 1016.7mb 94f 86f
4:06pm 6 7 mph 1016.7mb 94f 86f
4:00pm 3 6 mph 1016.7mb 94f 87f
3:54pm 6 7 mph 1016.8mb 94f 86f
3:48pm 7 10 mph 1016.8mb 94f 85f
3:42pm 7 8 mph 1016.8mb 94f 86f
3:36pm 6 7 mph 1016.8mb 94f 86f
3:30pm 6 8 mph 1016.7mb 94f 86f
3:24pm 7 10 mph 1016.6mb 94f 86f
3:18pm 9 10 mph 1016.6mb 94f 86f
3:12pm 8 10 mph 1016.6mb 94f 87f
3:06pm 8 10 mph 1016.8mb 94f 86f
3:00pm 8 11 mph 1016.9mb - 87f
2:54pm 9 11 mph 1016.8mb - 86f
2:48pm 8 9 mph 1017.3mb - 86f
2:42pm 8 11 mph 1017.4mb - 86f
2:36pm 9 13 mph 1017.2mb - 85f
2:30pm 10 13 mph 1017.1mb - 86f
2:24pm 10 13 mph 1017mb - 86f
2:18pm 9 11 mph 1017mb 94f 86f
2:12pm 9 13 mph 1017.1mb 94f 86f
2:06pm 9 11 mph 1017.1mb 94f 86f
2:00pm 9 11 mph 1017.2mb 94f 86f
1:54pm 9 13 mph 1017.3mb 94f 86f
1:48pm 9 11 mph 1017.4mb 94f 86f
1:42pm 8 11 mph 1017.5mb 94f 86f
1:36pm 9 11 mph 1017.6mb 94f 86f
1:30pm 9 11 mph 1017.6mb 94f 86f
1:24pm 9 11 mph 1017.6mb 94f 86f
1:18pm 9 11 mph 1017.7mb 94f 86f
1:12pm 9 10 mph 1017.6mb 94f 86f
1:06pm 8 11 mph 1017.6mb 94f 86f
1:00pm 9 10 mph 1017.7mb 94f 86f
12:54pm 8 10 mph 1017.9mb 93f 86f
12:48pm 9 10 mph 1018mb 93f 86f
12:42pm 9 10 mph 1018.1mb 93f 86f
12:36pm 8 10 mph 1018.2mb 93f 86f
12:30pm 7 8 mph 1018.1mb 93f 86f
12:24pm 6 8 mph 1018.1mb 93f 87f
12:18pm 7 9 mph 1018.1mb 93f 86f
12:12pm 6 7 mph 1018.2mb 93f 87f
12:06pm 6 8 mph 1018.2mb 93f 86f
12:00pm 6 8 mph 1018.2mb 93f 86f
11:54am 7 8 mph 1018.2mb 93f 86f
11:48am 6 8 mph 1018.2mb 93f 86f
11:42am 6 7 mph 1018.3mb 92f 86f
11:36am 6 7 mph 1018.3mb 92f 85f
11:30am 6 7 mph 1018.4mb 92f 85f
11:24am 6 7 mph 1018.4mb 92f 86f
11:18am 6 9 mph 1018.5mb 92f 85f
11:12am 6 8 mph 1018.5mb 92f 86f
11:06am 2 5 mph 1018.6mb 92f 88f
11:00am  -  8 mph 1018.6mb 92f 89f
10:54am 5 8 mph 1018.6mb 92f 86f
10:48am 5 6 mph 1018.5mb 92f 86f
10:42am 5 7 mph 1018.5mb 92f 85f
10:36am 2 6 mph 1018.5mb 92f 86f
10:30am 5 6 mph 1018.5mb 92f 85f
10:24am 2 5 mph 1018.6mb 92f 86f
10:18am 1 5 mph 1018.6mb 92f 85f
10:12am 3 7 mph 1018.6mb 92f 85f
10:06am 3 7 mph 1018.6mb 92f 84f
10:00am 5 7 mph 1018.5mb 92f 84f
9:54am 6 8 mph 1018.5mb 92f 84f
9:48am 5 6 mph 1018.5mb 92f 84f
9:42am 3 6 mph 1018.5mb 92f 84f
9:36am 5 7 mph 1018.5mb 92f 83f
9:30am 5 7 mph 1018.4mb 92f 83f
9:24am 2 6 mph 1018.3mb 92f 83f
9:18am 5 6 mph 1018.4mb 92f 83f
9:12am 3 6 mph 1018.3mb 92f 83f
9:06am 5 6 mph 1018.2mb 92f 83f
9:00am 5 7 mph 1018.2mb 92f 82f
8:54am 5 7 mph 1018.2mb 92f 82f
8:48am 3 6 mph 1018.1mb 92f 82f
8:42am 5 7 mph 1018.1mb 92f 82f
8:36am 6 8 mph 1018.1mb 92f 82f
8:30am 5 7 mph 1018mb 92f 82f
8:24am 6 7 mph 1018mb 92f 81f
8:18am 5 7 mph 1018mb 92f 81f
8:12am 6 9 mph 1017.9mb 92f 80f
8:06am 5 8 mph 1017.8mb 92f 80f
8:00am 5 7 mph 1017.8mb 92f 80f
7:54am 3 7 mph 1017.7mb 92f 80f
7:48am 5 8 mph 1017.6mb 92f 80f
7:42am 6 7 mph 1017.4mb 92f 79f
7:36am 6 9 mph 1017.4mb 92f 79f
7:30am 5 8 mph 1017.3mb 92f 79f
7:24am 3 7 mph 1017.2mb 92f 78f
7:18am 5 7 mph 1017mb 92f 78f
7:12am 3 6 mph 1017mb 92f 78f
7:06am 3 5 mph 1017mb 92f 78f
7:00am 2 5 mph 1016.9mb 92f 78f
6:54am 3 5 mph 1016.8mb 92f 78f
6:48am 2 5 mph 1016.8mb 92f 78f
6:42am 3 5 mph 1016.8mb 92f 78f
6:36am 2 5 mph 1016.7mb 92f 78f
6:30am 3 6 mph 1016.6mb 92f 78f
6:24am 3 6 mph 1016.5mb 92f 78f
6:18am 3 6 mph 1016.5mb 92f 78f
6:12am 3 7 mph 1016.3mb 92f 78f
6:06am 3 6 mph 1016.3mb 92f 78f
6:00am 5 6 mph 1016.3mb 92f 78f
5:54am 3 6 mph 1016.2mb 92f 78f
5:48am 3 6 mph 1016.2mb 92f 79f
5:42am 3 6 mph 1016.2mb 92f 79f
5:36am 3 6 mph 1016.2mb 92f 79f
5:30am 3 6 mph 1016.1mb 92f 79f
5:24am 5 6 mph 1016.1mb 92f 79f
5:18am 3 6 mph 1016.1mb 92f 79f
5:12am 3 6 mph 1016mb 92f 79f
5:06am 3 7 mph 1016mb 92f 79f
5:00am 5 7 mph 1016mb 92f 79f
4:54am 3 6 mph 1015.9mb 92f 79f
4:48am 5 7 mph 1016mb 92f 79f
4:42am 3 6 mph 1016mb 92f 79f
4:36am 3 5 mph 1016mb 92f 79f
4:30am 3 5 mph 1016.1mb 92f 79f
4:24am 3 6 mph 1016.1mb 92f 79f
4:18am 5 7 mph 1016.1mb 92f 79f
4:12am 6 7 mph 1016.1mb 92f 79f
4:06am 2 7 mph 1016.1mb 92f 79f
4:00am 3 6 mph 1016.2mb 92f 79f
3:54am 5 6 mph 1016.2mb 92f 79f
3:48am 5 7 mph 1016.4mb 92f 79f
3:42am 5 7 mph 1016.5mb 92f 79f
3:36am 5 7 mph 1016.6mb 92f 79f
3:30am 3 6 mph 1016.6mb 92f 79f
3:24am 6 9 mph 1016.6mb 92f 79f
3:18am 5 7 mph 1016.6mb 92f 79f
3:12am 6 7 mph 1016.6mb 92f 79f
3:06am 6 7 mph 1016.6mb 92f 79f
3:00am 5 8 mph 1016.6mb 92f 79f
2:54am 6 8 mph 1016.6mb 92f 79f
2:48am 6 8 mph 1016.7mb 92f 79f
2:42am 5 7 mph 1016.7mb 92f 79f
2:36am 5 6 mph 1016.7mb 92f 79f
2:30am 6 7 mph 1016.8mb 92f 79f
2:24am 5 7 mph 1017mb 92f 79f
2:18am 6 7 mph 1017.1mb 92f 79f
2:12am 5 8 mph 1017.3mb 93f 79f
2:06am 6 8 mph 1017.3mb 93f 79f
2:00am 5 7 mph 1017.4mb 93f 79f
1:54am 6 8 mph 1017.4mb 93f 79f
1:48am 6 9 mph 1017.5mb 93f 79f
1:42am 6 9 mph 1017.6mb 93f 79f
1:36am 5 8 mph 1017.7mb 93f 79f
1:30am 6 8 mph 1017.7mb 93f 79f
1:24am 6 9 mph 1017.8mb 93f 79f
1:18am 6 8 mph 1018mb 93f 79f
1:12am 6 9 mph 1018mb 93f 79f
1:06am 6 7 mph 1018.1mb 93f 79f
1:00am 6 7 mph 1018.3mb 93f 79f
12:54am 5 8 mph 1018.4mb 93f 79f
12:48am 5 8 mph 1018.5mb 93f 79f
12:42am 6 9 mph 1018.6mb 93f 79f
12:36am 6 11 mph 1018.6mb 93f 79f
12:30am 6 9 mph 1018.5mb 93f 79f
12:24am 5 10 mph 1018.4mb 93f 80f
12:18am 7 11 mph 1018.3mb 93f 80f
12:12am 6 11 mph 1018.4mb 93f 80f
12:06am 6 9 mph 1018.4mb 93f 80f
12:00am 6 9 mph 1018.5mb 93f 80f
Sun 07/20 11:54pm 6 10 mph 1018.5mb 93f 80f
11:48pm 6 7 mph 1018.4mb 93f 80f
11:42pm 5 8 mph 1018.4mb 93f 80f
11:36pm 6 9 mph 1018.2mb 93f 80f
11:30pm 5 6 mph 1018.3mb 93f 80f
11:24pm 5 9 mph 1018.4mb 93f 81f
11:18pm 3 7 mph 1018.4mb 93f 81f
11:12pm 6 9 mph 1018.3mb 93f 81f
11:06pm 6 9 mph 1018.4mb 93f 81f
11:00pm 3 10 mph 1018.4mb 93f 81f
10:54pm 6 9 mph 1018.5mb 93f 82f
10:48pm 6 10 mph 1018.5mb 93f 82f
10:42pm 6 8 mph 1018.4mb 93f 82f
10:36pm 5 8 mph 1018.4mb 93f 82f
10:30pm 6 10 mph 1018.4mb 93f 82f
10:24pm 7 9 mph 1018.5mb 93f 82f
10:18pm 5 6 mph 1018.3mb 93f 82f
10:12pm 5 6 mph 1018.2mb 93f 82f
10:06pm 3 7 mph 1018.2mb 93f 81f
10:00pm 5 7 mph 1018.2mb 93f 81f
9:54pm 6 7 mph 1018.3mb 93f 81f
9:48pm 5 7 mph 1018.1mb 93f 81f
9:42pm 3 6 mph 1017.9mb 93f 81f
9:36pm 6 7 mph 1017.8mb 94f 81f
9:30pm 6 9 mph 1017.7mb 94f 81f
9:24pm 6 13 mph 1017.7mb 94f 81f
9:18pm 6 13 mph 1017.8mb 94f 81f
9:12pm 9 13 mph 1017.8mb 94f 81f
9:06pm 8 13 mph 1017.8mb 94f 82f
9:00pm 9 16 mph 1017.9mb 94f 82f
8:54pm 9 15 mph 1017.9mb 94f 82f
8:48pm 9 16 mph 1017.7mb 94f 82f
8:42pm 8 16 mph 1017.6mb 94f 83f
8:36pm 11 20 mph 1017.6mb - 83f
8:30pm 16 23 mph 1017.5mb - 84f
8:24pm 15 21 mph 1017.4mb - 86f
8:18pm 15 25 mph 1017.1mb - 87f
8:12pm 20 25 mph 1016.8mb - 88f
8:06pm 16 20 mph 1016.8mb - 88f
8:00pm 16 17 mph 1016.5mb - 88f
7:54pm 16 18 mph 1016.5mb - 88f
7:48pm 15 17 mph 1016.4mb - 88f
7:42pm 13 14 mph 1016.4mb - 87f
7:36pm 11 14 mph 1016.4mb - 87f
7:30pm 14 15 mph 1016.4mb - 87f
7:24pm 13 15 mph 1016.3mb - 87f
7:18pm 14 15 mph 1016.2mb - 87f
7:12pm 14 15 mph 1016.2mb - 88f
7:06pm 13 15 mph 1016.3mb - 88f
7:00pm 13 15 mph 1016.3mb - 88f
6:54pm 14 15 mph 1016.2mb - 88f
6:48pm 13 15 mph 1016.2mb - 88f
6:42pm 13 15 mph 1016.3mb - 88f
6:36pm 14 16 mph 1016.4mb - 88f
6:30pm 14 16 mph 1016.4mb - 88f
6:24pm 14 15 mph 1016.4mb - 88f
6:18pm 13 15 mph 1016.4mb - 88f
6:12pm 13 15 mph 1016.4mb - 88f
6:06pm 13 14 mph 1016.5mb - 88f
6:00pm 10 14 mph 1016.4mb - 88f
5:54pm 13 14 mph 1016.4mb - 88f
5:48pm 11 13 mph 1016.4mb - 88f
5:42pm 10 13 mph 1016.4mb - 88f
5:36pm 9 11 mph 1016.2mb - 88f
5:30pm 11 13 mph 1016.2mb - 88f
5:24pm 10 13 mph 1016.1mb - 88f
5:18pm 11 14 mph 1016.1mb - 88f
5:12pm 11 13 mph 1016.2mb - 87f
5:06pm 11 13 mph 1016.2mb - 88f
5:00pm 11 14 mph 1016.1mb - 87f
4:54pm 9 11 mph 1016.2mb - 87f
4:48pm 9 11 mph 1016.2mb - 88f
4:42pm 8 10 mph 1016.2mb 94f 87f
4:36pm 9 11 mph 1016.3mb 94f 87f
4:30pm 9 10 mph 1016.4mb - 87f
4:24pm 8 10 mph 1016.3mb - 87f
4:18pm 8 9 mph 1016.4mb 94f 87f
4:12pm 8 9 mph 1016.5mb - 87f
4:06pm 8 10 mph 1016.5mb - 87f
4:00pm 8 10 mph 1016.7mb 94f 87f
3:54pm 9 11 mph 1016.6mb 94f 87f
3:48pm 9 10 mph 1016.7mb 94f 87f
3:42pm 8 10 mph 1016.7mb 93f 87f
3:36pm 8 10 mph 1016.8mb 93f 88f
3:30pm 7 9 mph 1016.8mb 93f 88f
3:24pm 6 9 mph 1017mb 94f 87f
3:18pm 8 9 mph 1017.1mb 93f 87f
3:12pm 7 10 mph 1017mb 93f 87f
3:06pm 8 9 mph 1017mb 93f 87f
3:00pm 9 10 mph 1017.1mb 93f 86f
2:54pm 8 11 mph 1017.1mb 93f 87f
2:48pm 9 11 mph 1017.3mb 93f 86f
2:42pm 9 11 mph 1017.4mb 93f 86f
2:36pm 10 11 mph 1017.5mb 93f 86f
2:30pm 8 10 mph 1017.8mb 93f 86f
2:24pm 9 11 mph 1017.9mb 93f 86f
2:18pm 9 10 mph 1017.9mb 93f 86f
2:12pm 9 11 mph 1017.9mb 93f 86f
2:06pm 9
mph
1018mb 93f 86f
2:00pm 8 9 mph 1018mb 93f 86f
1:54pm 8 9 mph 1018.1mb 93f 86f
1:48pm 7 10 mph 1018.3mb 93f 86f
1:42pm 7 9 mph 1018.4mb 93f 86f
1:36pm 7 9 mph 1018.4mb 93f 86f
1:30pm 7 10 mph 1018.5mb 93f 86f
1:24pm 8 10 mph 1018.6mb 93f 86f
1:18pm 7 9 mph 1018.6mb 93f 86f
1:12pm 7 8 mph 1018.7mb 93f 85f
1:06pm 7 8 mph 1018.8mb 93f 86f
1:00pm 7 8 mph 1018.7mb 93f 86f
12:54pm 6 9 mph 1018.7mb 93f 85f
12:48pm 7 8 mph 1018.7mb 93f 86f
12:42pm 6 9 mph 1018.8mb 93f 86f
12:36pm 7 10 mph 1018.8mb 92f 85f
12:30pm 6 8 mph 1018.9mb 92f 86f
12:24pm 7 8 mph 1018.9mb 92f 87f
12:18pm 7
mph
1018.9mb 92f 86f
12:12pm 6 8 mph 1018.9mb 92f 86f
12:06pm 5 8 mph 1018.9mb 92f 87f
12:00pm 7 8 mph 1018.9mb 92f 86f
11:54am 6 8 mph 1018.8mb 92f 87f
11:48am 6 7 mph 1018.8mb 92f 87f
11:42am 5 7 mph 1018.7mb 92f 87f
11:36am 3 6 mph 1018.6mb 92f 87f
11:30am 5 6 mph 1018.6mb 92f 88f
11:24am 5 6 mph 1018.5mb 92f 87f
11:18am 5 6 mph 1018.4mb 92f 86f
11:12am 3 6 mph 1018.4mb 91f 86f
11:06am 5 6 mph 1018.4mb 91f 86f
11:00am 3 6 mph 1018.4mb 91f 86f
10:54am 3 5 mph 1018.4mb 91f 87f
10:48am 5 6 mph 1018.5mb 91f 86f
10:42am 3 5 mph 1018.5mb 91f 87f
10:36am 2 3 mph 1018.4mb 91f 87f
10:30am  -  3 mph 1018.4mb 91f 89f
10:24am 2 5 mph 1018.5mb 91f 88f
10:18am  -  3 mph 1018.5mb 91f 89f
10:12am 2 3 mph 1018.5mb 91f 87f
10:06am 1 2 mph 1018.5mb 91f 88f
10:00am 1 3 mph 1018.5mb 91f 86f
9:54am 2 3 mph 1018.5mb 91f 85f
9:48am 2 5 mph 1018.4mb 91f 85f
9:42am 2 6 mph 1018.4mb 91f 85f
9:36am 5 7 mph 1018.4mb 91f 84f
9:30am 5 7 mph 1018.3mb 91f 84f
9:24am 3 6 mph 1018.2mb 91f 84f
9:18am 6 7 mph 1018.2mb 91f 83f
9:12am 5 8 mph 1018.2mb 91f 83f
9:06am 5 7 mph 1018.2mb 91f 83f
9:00am 5 7 mph 1018.1mb 91f 82f
8:54am 6 7 mph 1018.2mb 91f 82f
8:48am 6 8 mph 1018.2mb 91f 82f
8:42am 6 8 mph 1018.1mb 91f 81f
8:36am 6 7 mph 1018mb 91f 81f
8:30am 5 8 mph 1018mb 91f 81f
8:24am 6 9 mph 1017.9mb 91f 80f
8:18am 7 8 mph 1017.9mb 91f 80f
8:12am 6 7 mph 1018mb 91f 80f
8:06am 5 7 mph 1018mb 91f 80f
8:00am 5 7 mph 1018mb 91f 79f
7:54am 5 7 mph 1017.9mb 91f 79f
7:48am 5 7 mph 1018mb 91f 79f
7:42am 5 8 mph 1017.9mb 91f 78f
7:36am 6 7 mph 1017.8mb 91f 78f
7:30am 5 7 mph 1017.7mb 91f 78f
7:24am 6 8 mph 1017.6mb 91f 78f
7:18am 6 8 mph 1017.6mb 91f 78f
7:12am 6 8 mph 1017.6mb 91f 77f
7:06am 6 8 mph 1017.6mb 91f 77f
7:00am 6 9 mph 1017.6mb 91f 77f
6:54am 7 9 mph 1017.5mb 91f 77f